Time;durP1;ratioP1;P1;durP2;ratioP2;P2;SDS_P1;SDS_P2;PMS_P1;PMS_P2;Temp;Humidity;BMP_temperature;BMP_pressure;BME280_temperature;BME280_humidity;BME280_pressure;Samples;Min_cycle;Max_cycle;Signal;HPM_P1;HPM_P2
2022/07/12 00:01:54;;;;;;;7.50;2.05;;;19.00;75.00;;;;;;5050061;28;20046;-64
2022/07/12 00:04:21;;;;;;;7.85;2.30;;;19.00;74.90;;;;;;5060010;28;20483;-64
2022/07/12 00:06:51;;;;;;;8.68;1.92;;;19.10;74.90;;;;;;5052861;28;20047;-65
2022/07/12 00:09:18;;;;;;;4.72;1.63;;;19.00;75.00;;;;;;5049596;28;20140;-64
2022/07/12 00:11:45;;;;;;;4.75;1.55;;;19.00;75.00;;;;;;5056667;28;20048;-65
2022/07/12 00:14:12;;;;;;;4.50;1.23;;;19.00;75.10;;;;;;5055694;28;20056;-65
2022/07/12 00:16:39;;;;;;;4.82;1.08;;;19.00;75.10;;;;;;5051501;28;20045;-64
2022/07/12 00:19:06;;;;;;;4.15;1.35;;;19.00;75.20;;;;;;5054095;28;20037;-64
2022/07/12 00:21:33;;;;;;;4.93;1.05;;;19.00;75.20;;;;;;5054931;28;20123;-64
2022/07/12 00:24:02;;;;;;;4.07;0.90;;;19.00;75.20;;;;;;5053740;28;20048;-64
2022/07/12 00:26:28;;;;;;;2.00;0.65;;;19.00;75.30;;;;;;5047673;28;20057;-63
2022/07/12 00:28:57;;;;;;;3.38;0.93;;;18.90;75.40;;;;;;5035708;28;20063;-64
2022/07/12 00:31:24;;;;;;;2.35;0.93;;;18.90;75.50;;;;;;5054441;28;20055;-65
2022/07/12 00:33:51;;;;;;;2.35;0.65;;;18.90;75.60;;;;;;5055540;28;20486;-64
2022/07/12 00:36:19;;;;;;;2.47;0.75;;;18.90;75.60;;;;;;5052915;28;20083;-64
2022/07/12 00:38:45;;;;;;;4.18;1.33;;;18.90;75.70;;;;;;5046903;28;20591;-67
2022/07/12 00:41:14;;;;;;;9.90;1.95;;;19.00;75.30;;;;;;5040151;28;20147;-66
2022/07/12 00:43:41;;;;;;;5.80;2.25;;;19.10;75.00;;;;;;5047536;28;20487;-66
2022/07/12 00:46:09;;;;;;;9.25;2.03;;;19.10;74.60;;;;;;5049529;28;20118;-65
2022/07/12 00:48:37;;;;;;;6.05;1.63;;;19.10;74.90;;;;;;5042329;28;20048;-65
2022/07/12 00:51:04;;;;;;;7.60;1.95;;;19.20;74.90;;;;;;5048224;28;20045;-70
2022/07/12 00:53:31;;;;;;;8.77;1.70;;;19.20;74.70;;;;;;5048157;28;20049;-69
2022/07/12 00:55:59;;;;;;;5.55;2.05;;;19.20;74.40;;;;;;5045509;28;20048;-66
2022/07/12 00:58:29;;;;;;;6.25;1.95;;;19.20;74.80;;;;;;5047994;28;20406;-69
2022/07/12 01:00:56;;;;;;;7.05;1.58;;;19.10;74.90;;;;;;5047302;28;20118;-69
2022/07/12 01:03:23;;;;;;;4.95;1.17;;;19.10;75.00;;;;;;5048305;28;20114;-70
2022/07/12 01:05:50;;;;;;;8.20;1.38;;;19.10;75.20;;;;;;5056806;28;20062;-69
2022/07/12 01:08:18;;;;;;;4.22;0.95;;;19.10;75.20;;;;;;5048382;28;20057;-69
2022/07/12 01:10:46;;;;;;;4.43;1.13;;;19.10;75.30;;;;;;5045090;28;20051;-68
2022/07/12 01:13:13;;;;;;;5.22;1.20;;;19.10;75.40;;;;;;5047812;28;20064;-68
2022/07/12 01:15:43;;;;;;;2.95;0.90;;;19.10;75.40;;;;;;5049717;28;20055;-67
2022/07/12 01:18:11;;;;;;;5.45;1.15;;;19.10;75.30;;;;;;5045481;28;20044;-68
2022/07/12 01:20:37;;;;;;;4.22;0.85;;;19.10;75.50;;;;;;5048067;28;20049;-69
2022/07/12 01:23:06;;;;;;;1.65;0.57;;;19.10;75.50;;;;;;5048374;28;20071;-69
2022/07/12 01:25:33;;;;;;;2.15;0.65;;;19.10;75.50;;;;;;5044494;28;20041;-69
2022/07/12 01:28:00;;;;;;;3.08;0.52;;;19.00;75.40;;;;;;5047606;28;20067;-69
2022/07/12 01:30:27;;;;;;;5.40;0.95;;;19.10;75.50;;;;;;5042355;28;20483;-70
2022/07/12 01:32:54;;;;;;;15.90;1.30;;;19.10;75.30;;;;;;5045625;28;20040;-72
2022/07/12 01:35:22;;;;;;;8.20;1.02;;;19.10;75.50;;;;;;5046598;28;20068;-68
2022/07/12 01:37:50;;;;;;;6.75;0.95;;;19.10;75.70;;;;;;5051937;28;20040;-68
2022/07/12 01:40:18;;;;;;;2.22;0.60;;;19.00;75.90;;;;;;5048510;28;20103;-69
2022/07/12 01:42:45;;;;;;;2.78;0.60;;;19.00;75.90;;;;;;5057022;28;20056;-69
2022/07/12 01:45:13;;;;;;;1.10;0.47;;;19.00;76.00;;;;;;5057522;28;20044;-67
2022/07/12 01:47:40;;;;;;;2.08;0.55;;;19.00;76.10;;;;;;5055756;28;20504;-67
2022/07/12 01:50:08;;;;;;;1.67;0.70;;;18.90;76.30;;;;;;5057444;28;20101;-67
2022/07/12 01:52:36;;;;;;;1.17;0.60;;;18.90;76.40;;;;;;5058737;28;20060;-68
2022/07/12 01:55:04;;;;;;;2.30;0.40;;;18.90;76.50;;;;;;5056827;28;20148;-69
2022/07/12 01:57:34;;;;;;;1.98;0.55;;;18.80;76.40;;;;;;5049748;28;20091;-67
2022/07/12 02:00:03;;;;;;;3.95;0.65;;;18.80;76.50;;;;;;5054856;28;20100;-69
2022/07/12 02:02:32;;;;;;;0.98;0.43;;;18.80;76.50;;;;;;5057208;28;20160;-68
2022/07/12 02:04:59;;;;;;;1.67;0.60;;;18.70;76.50;;;;;;5055658;28;20037;-68
2022/07/12 02:07:26;;;;;;;0.93;0.43;;;18.80;76.50;;;;;;5053476;28;20044;-67
2022/07/12 02:09:54;;;;;;;2.05;0.55;;;18.80;76.50;;;;;;5051788;28;20049;-68
2022/07/12 02:12:21;;;;;;;1.48;0.50;;;18.70;76.50;;;;;;5058635;28;20083;-68
2022/07/12 02:14:49;;;;;;;2.00;0.50;;;18.70;76.50;;;;;;5057144;28;20048;-67
2022/07/12 02:17:16;;;;;;;1.38;0.47;;;18.70;76.50;;;;;;5054076;28;20084;-68
2022/07/12 02:19:44;;;;;;;2.92;0.95;;;18.70;76.50;;;;;;5058448;28;20057;-66
2022/07/12 02:22:11;;;;;;;0.73;0.43;;;18.70;76.60;;;;;;5057372;28;20053;-68
2022/07/12 02:24:38;;;;;;;0.88;0.40;;;18.60;76.70;;;;;;5055229;28;20513;-70
2022/07/12 02:27:05;;;;;;;0.70;0.40;;;18.60;76.80;;;;;;5058433;28;20483;-67
2022/07/12 02:29:33;;;;;;;0.65;0.32;;;18.60;76.80;;;;;;5057108;28;20063;-66
2022/07/12 02:32:02;;;;;;;0.95;0.60;;;18.60;76.80;;;;;;5055540;28;20040;-67
2022/07/12 02:34:30;;;;;;;1.17;0.35;;;18.50;76.90;;;;;;5051642;28;20049;-67
2022/07/12 02:36:57;;;;;;;0.88;0.40;;;18.50;76.90;;;;;;5048869;28;20043;-68
2022/07/12 02:39:24;;;;;;;0.55;0.30;;;18.50;76.90;;;;;;5046038;28;20063;-67
2022/07/12 02:41:51;;;;;;;0.45;0.45;;;18.40;77.00;;;;;;5047355;28;20051;-65
2022/07/12 02:44:18;;;;;;;1.95;0.50;;;18.40;77.00;;;;;;5042954;28;20552;-66
2022/07/12 02:46:45;;;;;;;0.88;0.40;;;18.30;77.20;;;;;;5041355;28;20056;-66
2022/07/12 02:49:13;;;;;;;1.48;0.40;;;18.20;77.40;;;;;;5047579;28;20056;-67
2022/07/12 02:51:40;;;;;;;1.17;0.40;;;18.10;77.70;;;;;;5043577;28;20498;-67
2022/07/12 02:54:07;;;;;;;2.20;0.30;;;18.00;77.90;;;;;;5045940;28;20044;-65
2022/07/12 02:56:34;;;;;;;1.75;0.50;;;18.00;77.80;;;;;;5043880;28;20045;-65
2022/07/12 02:59:01;;;;;;;0.55;0.40;;;18.00;77.90;;;;;;5045023;28;20052;-65
2022/07/12 03:01:28;;;;;;;1.83;0.40;;;17.90;78.00;;;;;;5041855;28;20053;-70
2022/07/12 03:03:55;;;;;;;0.65;0.30;;;17.80;78.10;;;;;;5046895;28;20048;-67
2022/07/12 03:06:23;;;;;;;0.98;0.40;;;17.80;78.20;;;;;;5042899;28;20063;-68
2022/07/12 03:08:51;;;;;;;1.25;0.50;;;17.70;78.10;;;;;;5047637;28;20076;-66
2022/07/12 03:11:18;;;;;;;0.50;0.35;;;17.80;78.10;;;;;;5031293;28;20646;-67
2022/07/12 03:13:44;;;;;;;1.33;0.55;;;17.70;78.20;;;;;;5042001;28;20060;-66
2022/07/12 03:16:11;;;;;;;3.50;0.55;;;17.60;78.30;;;;;;5050391;28;20131;-65
2022/07/12 03:18:40;;;;;;;1.08;0.50;;;17.60;78.30;;;;;;5042423;28;20045;-65
2022/07/12 03:21:07;;;;;;;0.82;0.47;;;17.50;78.40;;;;;;5046706;28;20056;-64
2022/07/12 03:23:36;;;;;;;2.47;0.55;;;17.50;78.40;;;;;;5044684;28;20048;-65
2022/07/12 03:26:03;;;;;;;2.10;0.57;;;17.40;78.40;;;;;;5053175;28;20040;-68
2022/07/12 03:28:30;;;;;;;0.75;0.40;;;17.40;78.40;;;;;;5054379;28;20045;-65
2022/07/12 03:30:57;;;;;;;0.80;0.40;;;17.40;78.50;;;;;;5052140;28;20072;-67
2022/07/12 03:33:24;;;;;;;0.98;0.30;;;17.30;78.60;;;;;;5049120;28;20040;-65
2022/07/12 03:35:51;;;;;;;1.75;0.55;;;17.20;78.70;;;;;;5045177;28;20049;-65
2022/07/12 03:38:18;;;;;;;0.63;0.40;;;17.20;78.60;;;;;;5043332;28;20052;-67
2022/07/12 03:40:46;;;;;;;1.40;0.52;;;17.20;78.70;;;;;;5035583;28;20045;-65
2022/07/12 03:43:13;;;;;;;1.08;0.30;;;17.20;78.70;;;;;;5039062;28;20059;-67
2022/07/12 03:45:42;;;;;;;0.63;0.50;;;17.10;78.70;;;;;;5042705;28;20067;-67
2022/07/12 03:48:08;;;;;;;1.38;0.60;;;17.10;78.80;;;;;;5042940;28;20063;-65
2022/07/12 03:50:36;;;;;;;1.40;0.57;;;17.10;78.80;;;;;;5050901;28;20140;-68
2022/07/12 03:53:02;;;;;;;1.40;0.60;;;17.10;78.60;;;;;;5052240;28;20115;-65
2022/07/12 03:55:29;;;;;;;2.58;0.82;;;17.10;78.60;;;;;;5055572;28;20045;-66
2022/07/12 03:57:57;;;;;;;2.50;0.80;;;17.10;78.60;;;;;;5041734;28;20044;-66
2022/07/12 04:00:24;;;;;;;0.70;0.45;;;17.10;78.60;;;;;;5044104;28;20052;-66
2022/07/12 04:02:53;;;;;;;1.27;0.80;;;17.00;78.80;;;;;;5046469;28;20558;-66
2022/07/12 04:05:25;;;;;;;1.80;0.60;;;17.00;78.90;;;;;;5048532;28;20055;-65
2022/07/12 04:07:52;;;;;;;1.88;0.43;;;16.90;78.90;;;;;;5044566;28;20055;-65
2022/07/12 04:10:19;;;;;;;3.28;0.60;;;16.90;79.00;;;;;;5051167;28;20049;-66
2022/07/12 04:12:46;;;;;;;1.40;0.70;;;16.80;79.00;;;;;;5047975;28;20427;-66
2022/07/12 04:15:14;;;;;;;2.55;0.98;;;16.90;79.10;;;;;;5058860;28;20053;-65
2022/07/12 04:17:41;;;;;;;1.35;0.50;;;16.90;79.10;;;;;;5058083;28;20052;-66
2022/07/12 04:20:10;;;;;;;1.75;0.80;;;16.90;79.20;;;;;;5054667;28;20056;-69
2022/07/12 04:22:38;;;;;;;1.20;0.40;;;16.80;79.20;;;;;;5044794;28;20594;-71
2022/07/12 04:25:06;;;;;;;1.55;0.50;;;16.90;79.20;;;;;;5044325;28;20395;-69
2022/07/12 04:27:33;;;;;;;1.15;0.60;;;17.00;79.30;;;;;;5049209;28;20036;-69
2022/07/12 04:30:00;;;;;;;0.82;0.60;;;17.10;79.20;;;;;;5046954;28;20474;-69
2022/07/12 04:32:28;;;;;;;8.10;0.82;;;17.10;78.90;;;;;;5049992;28;20148;-67
2022/07/12 04:34:55;;;;;;;1.58;0.50;;;17.10;79.00;;;;;;5046847;28;20051;-68
2022/07/12 04:37:22;;;;;;;1.00;0.50;;;17.10;78.80;;;;;;5047307;28;20570;-67
2022/07/12 04:39:49;;;;;;;4.15;0.60;;;17.20;78.60;;;;;;5057864;28;20044;-68
2022/07/12 04:42:16;;;;;;;1.48;0.50;;;17.20;78.60;;;;;;5053320;28;20051;-70
2022/07/12 04:44:43;;;;;;;1.20;0.60;;;17.20;78.60;;;;;;5055200;28;20379;-69
2022/07/12 04:47:10;;;;;;;0.90;0.52;;;17.20;78.70;;;;;;5065685;28;20048;-68
2022/07/12 04:49:39;;;;;;;1.70;0.57;;;17.20;78.60;;;;;;5052728;28;20053;-68
2022/07/12 04:52:07;;;;;;;3.47;0.70;;;17.20;78.50;;;;;;5048179;28;20163;-68
2022/07/12 04:54:34;;;;;;;0.82;0.43;;;17.20;78.60;;;;;;5049962;28;20546;-67
2022/07/12 04:57:01;;;;;;;1.05;0.50;;;17.20;78.50;;;;;;5047886;28;20487;-68
2022/07/12 04:59:28;;;;;;;0.63;0.50;;;17.20;78.60;;;;;;5048776;28;20056;-69
2022/07/12 05:01:55;;;;;;;1.35;0.55;;;17.20;78.50;;;;;;5044643;28;20057;-69
2022/07/12 05:04:22;;;;;;;1.27;0.70;;;17.20;78.40;;;;;;5048657;28;20047;-69
2022/07/12 05:06:52;;;;;;;1.50;0.80;;;17.30;78.40;;;;;;5044333;28;20040;-68
2022/07/12 05:09:19;;;;;;;1.30;0.60;;;17.30;78.20;;;;;;5048392;28;20136;-69
2022/07/12 05:11:46;;;;;;;1.55;0.70;;;17.30;78.50;;;;;;5050644;28;20128;-69
2022/07/12 05:14:13;;;;;;;1.23;0.65;;;17.30;78.60;;;;;;5050357;28;20137;-68
2022/07/12 05:16:40;;;;;;;1.02;0.75;;;17.30;78.50;;;;;;5055157;28;20398;-69
2022/07/12 05:19:07;;;;;;;1.45;0.77;;;17.40;78.60;;;;;;5044348;28;20443;-69
2022/07/12 05:21:35;;;;;;;1.98;0.80;;;17.40;78.30;;;;;;5052127;28;20047;-68
2022/07/12 05:24:04;;;;;;;0.80;0.60;;;17.50;78.40;;;;;;5043781;28;20484;-68
2022/07/12 05:26:31;;;;;;;0.70;0.60;;;17.50;78.40;;;;;;5043568;28;20057;-68
2022/07/12 05:28:58;;;;;;;3.05;1.02;;;17.60;78.10;;;;;;5050133;28;20063;-68
2022/07/12 05:31:26;;;;;;;1.48;0.77;;;17.60;78.30;;;;;;5047933;28;20052;-69
2022/07/12 05:33:53;;;;;;;2.28;0.90;;;17.70;78.10;;;;;;5046418;28;20042;-68
2022/07/12 05:36:21;;;;;;;1.45;0.80;;;17.80;78.30;;;;;;5047986;28;20612;-68
2022/07/12 05:38:48;;;;;;;1.67;0.68;;;17.80;78.10;;;;;;5049437;28;20052;-68
2022/07/12 05:41:17;;;;;;;3.10;0.82;;;17.90;78.00;;;;;;5056146;28;20045;-70
2022/07/12 05:43:44;;;;;;;2.63;1.10;;;18.10;78.00;;;;;;5044876;28;20128;-69
2022/07/12 05:46:11;;;;;;;1.80;1.10;;;18.10;78.30;;;;;;5042869;28;20077;-68
2022/07/12 05:48:38;;;;;;;2.47;0.80;;;18.10;78.10;;;;;;5047511;28;20123;-69
2022/07/12 05:53:50;;;;;;;1.60;0.70;;;18.20;78.00;;;;;;5061319;28;20045;-68
2022/07/12 05:56:18;;;;;;;2.05;1.20;;;18.30;77.60;;;;;;5057047;28;20127;-68
2022/07/12 05:58:45;;;;;;;4.22;0.98;;;18.30;77.50;;;;;;5056413;28;20068;-69
2022/07/12 06:01:12;;;;;;;3.65;1.08;;;18.30;77.40;;;;;;5054010;28;20044;-69
2022/07/12 06:03:39;;;;;;;5.07;1.20;;;18.30;77.70;;;;;;5057865;28;20053;-66
2022/07/12 06:06:06;;;;;;;5.25;1.05;;;18.30;77.50;;;;;;5057808;28;20047;-67
2022/07/12 06:08:33;;;;;;;3.80;0.90;;;18.40;77.30;;;;;;5059959;28;20095;-67
2022/07/12 06:11:01;;;;;;;1.88;0.88;;;18.40;77.40;;;;;;5057013;28;20080;-68
2022/07/12 06:13:29;;;;;;;2.03;0.85;;;18.40;77.50;;;;;;5058841;28;20072;-68
2022/07/12 06:15:56;;;;;;;2.10;1.00;;;18.50;77.40;;;;;;5056756;28;20091;-67
2022/07/12 06:18:23;;;;;;;3.15;1.00;;;18.50;77.50;;;;;;5058275;28;20049;-68
2022/07/12 06:20:50;;;;;;;1.30;0.73;;;18.50;77.40;;;;;;5056971;28;20047;-67
2022/07/12 06:23:17;;;;;;;3.28;0.80;;;18.50;77.30;;;;;;5051347;28;20059;-68
2022/07/12 06:25:45;;;;;;;3.15;1.20;;;18.50;77.10;;;;;;5055158;28;20057;-67
2022/07/12 06:28:12;;;;;;;1.98;1.00;;;18.60;77.30;;;;;;5054591;28;20063;-67
2022/07/12 06:30:40;;;;;;;1.77;0.80;;;18.60;77.40;;;;;;5055951;28;20052;-68
2022/07/12 06:33:07;;;;;;;2.33;1.17;;;18.60;77.50;;;;;;5054600;28;20135;-66
2022/07/12 06:35:34;;;;;;;2.30;1.20;;;18.60;77.30;;;;;;5056701;28;20060;-67
2022/07/12 06:38:01;;;;;;;2.88;1.10;;;18.70;77.00;;;;;;5054531;28;20048;-67
2022/07/12 06:40:28;;;;;;;2.78;1.23;;;18.80;77.10;;;;;;5054613;28;20093;-69
2022/07/12 06:42:55;;;;;;;4.65;1.73;;;18.90;77.00;;;;;;5054988;28;20040;-68
2022/07/12 06:45:22;;;;;;;6.25;1.73;;;19.00;76.80;;;;;;5057031;28;20059;-67
2022/07/12 06:47:50;;;;;;;5.63;1.77;;;19.10;76.70;;;;;;5054386;28;20053;-68
2022/07/12 06:50:17;;;;;;;4.07;1.83;;;19.30;76.30;;;;;;5056293;28;20056;-67
2022/07/12 06:52:44;;;;;;;5.15;2.33;;;19.40;76.10;;;;;;5054755;28;20048;-68
2022/07/12 06:55:11;;;;;;;3.90;2.20;;;19.60;75.90;;;;;;5055516;28;20041;-67
2022/07/12 06:57:38;;;;;;;4.90;2.50;;;19.70;75.90;;;;;;5053294;28;20099;-67
2022/07/12 07:00:07;;;;;;;5.45;2.25;;;19.90;75.30;;;;;;5049702;28;20052;-68
2022/07/12 07:02:34;;;;;;;5.10;2.17;;;20.00;75.30;;;;;;5054178;28;20544;-67
2022/07/12 07:05:02;;;;;;;4.07;2.08;;;20.10;75.00;;;;;;5055553;28;20506;-66
2022/07/12 07:07:29;;;;;;;4.72;1.92;;;20.20;74.90;;;;;;5058547;28;20053;-67
2022/07/12 07:09:56;;;;;;;3.50;1.50;;;20.40;74.60;;;;;;5053687;28;20425;-66
2022/07/12 07:12:23;;;;;;;5.07;1.70;;;20.50;74.40;;;;;;5049712;28;20045;-65
2022/07/12 07:14:51;;;;;;;3.08;1.58;;;20.60;74.40;;;;;;5055263;28;20106;-65
2022/07/12 07:17:19;;;;;;;3.20;1.38;;;20.70;73.90;;;;;;5053753;28;20055;-70
2022/07/12 07:19:46;;;;;;;7.82;1.70;;;20.90;73.70;;;;;;5054660;28;20055;-67
2022/07/12 07:22:14;;;;;;;2.70;1.15;;;21.00;73.30;;;;;;5051241;28;20689;-67
2022/07/12 07:24:42;;;;;;;2.38;1.05;;;21.10;72.90;;;;;;5051300;28;20049;-65
2022/07/12 07:27:09;;;;;;;2.50;1.17;;;21.10;72.50;;;;;;5054837;28;20673;-66
2022/07/12 07:32:26;;;;;;;2.38;1.00;;;21.40;71.60;;;;;;4997889;28;20086;-66
2022/07/12 07:34:53;;;;;;;1.55;0.77;;;21.60;71.20;;;;;;5055548;28;20057;-68
2022/07/12 07:37:23;;;;;;;2.33;1.02;;;21.80;70.90;;;;;;5051632;28;20090;-66
2022/07/12 07:39:50;;;;;;;;;;;21.90;69.80;;;;;;5058123;28;20048;-66
2022/07/12 07:42:17;;;;;;;2.30;1.00;;;22.10;68.50;;;;;;5060942;28;19925;-67
2022/07/12 07:44:44;;;;;;;1.90;1.00;;;22.20;69.40;;;;;;5061527;28;20154;-67
2022/07/12 07:47:11;;;;;;;2.15;0.90;;;22.30;68.30;;;;;;5060119;28;20057;-67
2022/07/12 07:49:38;;;;;;;1.83;0.90;;;22.50;68.00;;;;;;5060108;28;20212;-69
2022/07/12 07:52:05;;;;;;;2.25;1.25;;;22.60;66.70;;;;;;5059446;28;20475;-67
2022/07/12 07:54:33;;;;;;;1.60;0.80;;;22.70;66.00;;;;;;5058557;28;20413;-66
2022/07/12 07:57:00;;;;;;;1.17;0.73;;;22.90;66.80;;;;;;5059989;28;20371;-66
2022/07/12 07:59:27;;;;;;;3.13;0.88;;;22.90;65.70;;;;;;5061100;28;20036;-68
2022/07/12 08:01:54;;;;;;;3.25;0.70;;;22.90;64.90;;;;;;5058519;28;20052;-66
2022/07/12 08:04:22;;;;;;;2.33;0.70;;;22.70;65.00;;;;;;5056925;28;20053;-64
2022/07/12 08:06:50;;;;;;;1.42;0.50;;;22.60;64.70;;;;;;5059495;28;20072;-64
2022/07/12 08:09:18;;;;;;;1.30;0.60;;;22.50;64.70;;;;;;5059179;28;20059;-67
2022/07/12 08:11:46;;;;;;;3.42;0.43;;;22.40;64.40;;;;;;5057356;28;20729;-65
2022/07/12 08:14:13;;;;;;;1.45;0.43;;;22.30;64.00;;;;;;5057143;28;20052;-65
2022/07/12 08:16:40;;;;;;;1.23;0.65;;;22.30;64.10;;;;;;5059865;28;20131;-65
2022/07/12 08:19:07;;;;;;;0.77;0.40;;;22.50;63.90;;;;;;5061372;28;20493;-66
2022/07/12 08:21:34;;;;;;;0.85;0.50;;;22.60;63.70;;;;;;5054343;28;20037;-65
2022/07/12 08:24:01;;;;;;;2.40;0.40;;;22.80;63.90;;;;;;5060681;28;20498;-65
2022/07/12 08:26:28;;;;;;;0.90;0.50;;;22.80;63.70;;;;;;5058050;28;20041;-64
2022/07/12 08:28:57;;;;;;;0.70;0.40;;;23.00;63.10;;;;;;5056862;28;20052;-65
2022/07/12 08:31:24;;;;;;;0.50;0.35;;;23.00;62.80;;;;;;5059085;28;20103;-63
2022/07/12 08:33:52;;;;;;;0.70;0.40;;;22.90;61.70;;;;;;5059711;28;20083;-64
2022/07/12 08:36:19;;;;;;;0.88;0.43;;;22.80;61.50;;;;;;5057166;28;20134;-66
2022/07/12 08:38:46;;;;;;;0.63;0.30;;;22.70;61.40;;;;;;5051704;28;20049;-64
2022/07/12 08:41:14;;;;;;;1.30;0.45;;;22.80;61.10;;;;;;5054999;28;20055;-64
2022/07/12 08:43:42;;;;;;;0.50;0.40;;;23.00;61.10;;;;;;5054266;28;20508;-65
2022/07/12 08:46:13;;;;;;;0.77;0.40;;;23.20;60.90;;;;;;5058545;28;20041;-64
2022/07/12 08:48:41;;;;;;;0.80;0.50;;;23.40;61.00;;;;;;5054781;28;20052;-64
2022/07/12 08:51:10;;;;;;;0.70;0.32;;;23.60;59.80;;;;;;5041046;28;20044;-66
2022/07/12 08:53:37;;;;;;;0.30;0.30;;;23.70;59.10;;;;;;5060570;28;20068;-64
2022/07/12 08:56:06;;;;;;;1.20;0.30;;;23.80;58.40;;;;;;5056799;28;20044;-64
2022/07/12 08:58:33;;;;;;;0.47;0.30;;;23.70;58.90;;;;;;5057944;28;20049;-64
2022/07/12 09:01:01;;;;;;;0.50;0.40;;;23.90;58.70;;;;;;5054388;28;20524;-64
2022/07/12 09:03:30;;;;;;;1.90;0.85;;;24.00;58.80;;;;;;5055126;28;20064;-63
2022/07/12 09:05:58;;;;;;;10.45;3.70;;;24.10;58.60;;;;;;5057444;28;20049;-64
2022/07/12 09:08:27;;;;;;;13.17;6.67;;;24.30;58.40;;;;;;5059106;28;20075;-64
2022/07/12 09:10:57;;;;;;;12.57;6.85;;;24.40;58.20;;;;;;5058206;28;20044;-63
2022/07/12 09:13:51;;;;;;;14.75;6.60;;;24.60;57.50;;;;;;5058255;28;20056;-63
2022/07/12 09:16:20;;;;;;;10.80;5.82;;;24.70;57.20;;;;;;5058122;28;20052;-66
2022/07/12 09:18:50;;;;;;;11.40;5.20;;;24.80;56.50;;;;;;5057407;28;20056;-64
2022/07/12 09:21:26;;;;;;;5.95;2.47;;;25.00;56.30;;;;;;5057207;28;20055;-65
2022/07/12 09:23:54;;;;;;;3.75;1.70;;;25.10;56.00;;;;;;5054800;28;20137;-63
2022/07/12 09:26:21;;;;;;;1.87;0.80;;;25.20;55.50;;;;;;5059544;28;20494;-63
2022/07/12 09:28:51;;;;;;;2.00;0.80;;;25.30;54.90;;;;;;5057597;28;20041;-64
2022/07/12 09:31:18;;;;;;;1.17;0.40;;;25.40;54.60;;;;;;5059118;28;20060;-63
2022/07/12 09:36:55;;;;;;;1.67;0.70;;;25.50;54.10;;;;;;5026693;28;20248;-63
2022/07/12 09:39:24;;;;;;;3.85;1.52;;;25.80;53.40;;;;;;5012067;28;20045;-66
2022/07/12 09:41:53;;;;;;;4.43;1.55;;;25.90;52.40;;;;;;5015693;28;20045;-63
2022/07/12 09:44:21;;;;;;;4.28;1.70;;;26.00;52.60;;;;;;5009375;28;20058;-64
2022/07/12 09:46:48;;;;;;;4.43;2.05;;;26.10;52.30;;;;;;5013426;28;20049;-63
2022/07/12 09:49:17;;;;;;;4.43;1.92;;;26.10;52.30;;;;;;5051881;28;20127;-63
2022/07/12 09:51:46;;;;;;;5.38;2.50;;;26.20;51.80;;;;;;5092390;28;20050;-63
2022/07/12 09:54:19;;;;;;;4.20;1.30;;;26.30;51.60;;;;;;5094150;28;20089;-63
2022/07/12 09:56:48;;;;;;;5.22;1.30;;;26.40;51.00;;;;;;5094518;28;20130;-64
2022/07/12 09:59:17;;;;;;;4.57;2.03;;;26.50;50.50;;;;;;5091200;27;20368;-64
2022/07/12 10:01:45;;;;;;;;;;;26.60;50.30;;;;;;5092462;28;20044;-64
2022/07/12 10:04:16;;;;;;;3.63;1.57;;;26.70;49.50;;;;;;5093281;28;19927;-64
2022/07/12 10:06:43;;;;;;;4.75;1.83;;;26.80;49.50;;;;;;5087528;27;20463;-63
2022/07/12 10:09:12;;;;;;;4.25;1.58;;;26.80;49.60;;;;;;5087713;28;20560;-64
2022/07/12 10:11:39;;;;;;;1.77;0.88;;;26.90;49.60;;;;;;5093647;28;20059;-64
2022/07/12 10:14:07;;;;;;;3.28;1.38;;;26.90;49.40;;;;;;5088825;28;20052;-64
2022/07/12 10:16:37;;;;;;;5.00;1.98;;;27.00;49.30;;;;;;5083909;28;20040;-64
2022/07/12 10:19:26;;;;;;;6.70;2.50;;;27.00;49.30;;;;;;5086100;28;20039;-63
2022/07/12 10:21:54;;;;;;;3.90;1.60;;;27.10;49.20;;;;;;5088937;28;20454;-64
2022/07/12 10:24:52;;;;;;;4.72;1.77;;;27.20;48.80;;;;;;5084953;28;20135;-66
2022/07/12 10:27:34;;;;;;;4.30;1.52;;;27.30;48.50;;;;;;4978107;28;20055;-65
2022/07/12 10:30:17;;;;;;;2.03;1.17;;;27.30;48.00;;;;;;4987479;28;20099;-63
2022/07/12 10:32:46;;;;;;;1.38;0.80;;;27.40;47.20;;;;;;4989795;28;20157;-64
2022/07/12 10:35:16;;;;;;;0.93;0.47;;;27.50;47.30;;;;;;4990390;28;20129;-62
2022/07/12 10:38:14;;;;;;;1.63;0.60;;;27.60;46.70;;;;;;4985739;28;20047;-65
2022/07/12 10:40:44;;;;;;;1.42;0.68;;;27.60;46.50;;;;;;4993782;28;20059;-64
2022/07/12 10:46:24;;;;;;;1.08;0.77;;;27.80;46.60;;;;;;5000755;28;20050;-63
2022/07/12 10:48:52;;;;;;;1.85;0.82;;;27.80;46.50;;;;;;4985870;28;20123;-63
2022/07/12 10:51:20;;;;;;;7.22;2.42;;;27.90;46.40;;;;;;4987995;28;20046;-66
2022/07/12 10:53:50;;;;;;;6.10;3.15;;;27.90;46.60;;;;;;4988619;28;20077;-64
2022/07/12 10:56:21;;;;;;;6.72;3.22;;;28.00;46.40;;;;;;4999506;28;20042;-63
2022/07/12 10:58:51;;;;;;;5.47;2.47;;;28.10;46.10;;;;;;4997307;28;20129;-64
2022/07/12 11:01:20;;;;;;;3.67;1.50;;;28.10;45.90;;;;;;4994759;28;20132;-61
2022/07/12 11:03:49;;;;;;;3.13;1.45;;;28.10;45.60;;;;;;4983401;28;20047;-63
2022/07/12 11:06:18;;;;;;;1.67;1.00;;;28.20;45.30;;;;;;4996808;28;20130;-63
2022/07/12 11:08:51;;;;;;;;;;;28.20;44.90;;;;;;4990269;28;20046;-62
2022/07/12 11:11:21;;;;;;;1.95;0.70;;;28.10;45.10;;;;;;4988973;28;19925;-62
2022/07/12 11:13:48;;;;;;;2.58;0.60;;;28.20;44.60;;;;;;4993240;28;21973;-62
2022/07/12 11:16:16;;;;;;;1.98;0.40;;;28.20;44.90;;;;;;5017304;28;20050;-63
2022/07/12 11:18:43;;;;;;;1.42;0.60;;;28.30;44.70;;;;;;4986946;28;20046;-64
2022/07/12 11:21:10;;;;;;;1.75;0.68;;;28.30;43.90;;;;;;4987364;28;20041;-62
2022/07/12 11:23:40;;;;;;;1.02;0.40;;;28.40;44.40;;;;;;4995531;28;20496;-64
2022/07/12 11:26:08;;;;;;;0.40;0.40;;;28.40;43.90;;;;;;5028819;28;20504;-64
2022/07/12 11:28:37;;;;;;;0.40;0.40;;;28.50;42.90;;;;;;5008196;28;20046;-64
2022/07/12 11:31:06;;;;;;;0.45;0.30;;;28.60;43.70;;;;;;4991896;28;20052;-64
2022/07/12 11:33:35;;;;;;;0.82;0.30;;;28.60;43.40;;;;;;4995613;28;20632;-64
2022/07/12 11:36:05;;;;;;;3.97;0.60;;;28.70;43.30;;;;;;4989207;28;20054;-63
2022/07/12 11:38:32;;;;;;;0.60;0.40;;;28.80;43.00;;;;;;4985210;28;20054;-65
2022/07/12 11:41:00;;;;;;;1.48;0.40;;;28.90;42.90;;;;;;4984959;28;20046;-63
2022/07/12 11:43:28;;;;;;;0.50;0.40;;;29.00;42.60;;;;;;4991865;28;20061;-64
2022/07/12 11:45:56;;;;;;;1.25;0.40;;;29.00;42.30;;;;;;4993258;28;20585;-63
2022/07/12 11:48:24;;;;;;;0.90;0.40;;;29.10;42.80;;;;;;4983387;28;20485;-64
2022/07/12 11:50:52;;;;;;;0.90;0.50;;;29.10;43.00;;;;;;4982965;28;20426;-65
2022/07/12 11:53:21;;;;;;;2.33;0.70;;;29.10;42.60;;;;;;4981669;28;20701;-64
2022/07/12 11:55:49;;;;;;;;;;;29.10;42.40;;;;;;4987620;28;20046;-64
2022/07/12 11:58:17;;;;;;;2.70;0.80;;;29.20;42.10;;;;;;4988845;28;19921;-64
2022/07/12 12:00:44;;;;;;;1.30;0.73;;;29.10;42.40;;;;;;4980652;28;20213;-63
2022/07/12 12:03:14;;;;;;;1.85;0.70;;;29.10;42.30;;;;;;4991063;28;20045;-64
2022/07/12 12:05:42;;;;;;;2.13;0.70;;;29.10;41.90;;;;;;4988742;28;20100;-64
2022/07/12 12:08:11;;;;;;;1.27;0.65;;;29.10;41.50;;;;;;5012419;28;20135;-64
2022/07/12 12:10:38;;;;;;;1.98;0.70;;;29.10;41.40;;;;;;5011826;28;20872;-68
2022/07/12 12:13:05;;;;;;;1.10;0.60;;;29.20;41.70;;;;;;4979510;28;20136;-63
2022/07/12 12:15:34;;;;;;;0.65;0.40;;;29.20;42.00;;;;;;5064505;28;20071;-63
2022/07/12 12:18:04;;;;;;;1.80;0.75;;;29.30;41.50;;;;;;5068982;28;20048;-63
2022/07/12 12:20:33;;;;;;;0.57;0.40;;;29.40;41.30;;;;;;5062058;28;20453;-63
2022/07/12 12:23:01;;;;;;;5.22;0.80;;;29.50;41.10;;;;;;5065684;28;20040;-63
2022/07/12 12:25:30;;;;;;;2.40;1.07;;;29.50;41.00;;;;;;5066335;28;20084;-63
2022/07/12 12:27:58;;;;;;;;;;;29.50;40.40;;;;;;5072496;28;20130;-64
2022/07/12 12:30:25;;;;;;;2.92;1.60;;;29.50;40.50;;;;;;5076652;28;20031;-64
2022/07/12 12:32:54;;;;;;;2.33;1.15;;;29.50;40.70;;;;;;5071369;28;20048;-64
2022/07/12 12:35:23;;;;;;;1.95;1.00;;;29.50;40.20;;;;;;5077606;28;20501;-64
2022/07/12 12:37:53;;;;;;;2.42;1.10;;;29.50;39.80;;;;;;5074348;28;20044;-63
2022/07/12 12:40:22;;;;;;;7.35;3.17;;;29.50;40.30;;;;;;5066849;28;20063;-62
2022/07/12 12:42:49;;;;;;;;;;;29.50;40.20;;;;;;5065468;28;20048;-64
2022/07/12 12:45:21;;;;;;;4.10;1.55;;;29.40;40.00;;;;;;5067833;28;20012;-65
2022/07/12 12:47:55;;;;;;;2.03;1.00;;;29.40;39.60;;;;;;5058458;28;20086;-63
2022/07/12 12:50:43;;;;;;;1.17;0.65;;;29.40;39.50;;;;;;5067315;28;20047;-64
2022/07/12 12:53:16;;;;;;;1.48;0.73;;;29.30;38.80;;;;;;4985107;28;20122;-64
2022/07/12 12:55:44;;;;;;;1.35;0.68;;;29.30;38.80;;;;;;4988782;28;20065;-65
2022/07/12 12:58:12;;;;;;;0.93;0.47;;;29.20;39.10;;;;;;4992211;28;20050;-63
2022/07/12 13:00:41;;;;;;;1.43;0.70;;;29.20;39.40;;;;;;4994060;28;20482;-63
2022/07/12 13:03:09;;;;;;;1.80;0.75;;;29.20;39.90;;;;;;4992002;28;20045;-63
2022/07/12 13:05:36;;;;;;;1.05;0.50;;;29.20;40.10;;;;;;4984602;28;20402;-64